»·PEaware :: UAL250 KSFO-KLAS

UAL250 :: KSFO-KLAS

FLIGHT INFORMATION

Flight Status: Arrived
Operator:
United Airlines
More flights by this operator :: More flights under this callsign
Pilot: Anonymous 14085 (14085)
Aircraft: BOEING 737-300
(B733)
More flights by this aircraft type
Origin: KSFO San Francisco Intl
United States
Destination: KLAS McCarran Intl
United States
More flights between these airports :: More routes between these airports
Route: +SSTIK3 NTELL Q162 ESSAA BTY SUNST3
File this flight plan on PilotEdge
Remarks:
Altitude:
(Current/Filed)
35,000ft
Speed:
(Current/Filed)
480kts
Departed: 25-Jan-17 07:02 PM
Arrived: 25-Jan-17 08:07 PM
Distance/Time
Traveled:
359nm/1:05
Distance/Time
To Go:
Arrived

Flight Plot

Page will automatically refresh every two minutes.


Map Options




Map Legend


Flown Route
Filed Route
Departure Airport
Arrival Airport
Navaid (VOR, NDB)
Fix

Horizontal Profiles

Position Reports

Time Latitude Longitude Heading Altitude Ground
Speed
25-Jan-17 18:37 37.619730 -122.384023 213 20ft 0kts
25-Jan-17 18:38 37.619730 -122.384023 213 20ft 0kts
25-Jan-17 18:39 37.619730 -122.384023 213 20ft 0kts
25-Jan-17 18:40 37.619730 -122.384023 213 20ft 0kts
25-Jan-17 18:41 37.619730 -122.384023 213 20ft 0kts
25-Jan-17 18:42 37.619730 -122.384023 213 20ft 0kts
25-Jan-17 18:43 37.619730 -122.384023 213 20ft 0kts
25-Jan-17 18:44 37.619730 -122.384023 213 20ft 0kts
25-Jan-17 18:45 37.619730 -122.384023 213 20ft 0kts
25-Jan-17 18:46 37.619730 -122.384023 213 20ft 0kts
25-Jan-17 18:47 37.619730 -122.384023 213 20ft 0kts
25-Jan-17 18:48 37.619730 -122.384023 213 20ft 0kts
25-Jan-17 18:49 37.619730 -122.384023 213 20ft 0kts
25-Jan-17 18:50 37.619730 -122.384023 213 20ft 0kts
25-Jan-17 18:51 37.619730 -122.384023 213 20ft 0kts
25-Jan-17 18:52 37.619998 -122.383793 211 20ft 0kts
25-Jan-17 18:53 37.620408 -122.383940 132 20ft 0kts
25-Jan-17 18:54 37.620408 -122.383940 132 20ft 0kts
25-Jan-17 18:55 37.620408 -122.383940 132 20ft 0kts
25-Jan-17 18:56 37.620408 -122.383940 132 20ft 0kts
25-Jan-17 18:57 37.619753 -122.382179 117 20ft 16kts
25-Jan-17 18:58 37.616719 -122.379606 207 20ft 14kts
25-Jan-17 18:59 37.612439 -122.382403 206 20ft 24kts
25-Jan-17 19:00 37.608032 -122.384597 92 20ft 0kts
25-Jan-17 19:01 37.608141 -122.383541 85 20ft 12kts
25-Jan-17 19:02 37.623284 -122.372792 25 22ft 164kts
25-Jan-17 19:03 37.670595 -122.356780 354 1386ft 197kts
25-Jan-17 19:04 37.700100 -122.404983 235 3117ft 250kts
25-Jan-17 19:05 37.632323 -122.429467 194 6025ft 271kts
25-Jan-17 19:06 37.558989 -122.450918 197 8869ft 286kts
25-Jan-17 19:07 37.476989 -122.454522 142 10628ft 351kts
25-Jan-17 19:08 37.420086 -122.352159 124 13282ft 373kts
25-Jan-17 19:09 37.389271 -122.226818 102 15965ft 388kts
25-Jan-17 19:10 37.362557 -122.092473 102 18446ft 406kts
25-Jan-17 19:11 37.334406 -121.951809 102 19354ft 429kts
25-Jan-17 19:12 37.306082 -121.809215 102 19410ft 429kts
25-Jan-17 19:13 37.276867 -121.664960 103 21951ft 432kts
25-Jan-17 19:14 37.246589 -121.516818 103 23875ft 447kts
25-Jan-17 19:15 37.215006 -121.363389 103 25651ft 461kts
25-Jan-17 19:16 37.182435 -121.206292 103 27270ft 474kts
25-Jan-17 19:17 37.148679 -121.044672 103 28836ft 484kts
25-Jan-17 19:18 37.115280 -120.885908 104 30789ft 478kts
25-Jan-17 19:19 37.081583 -120.724592 105 32094ft 484kts
25-Jan-17 19:20 37.046653 -120.561004 105 33314ft 489kts
25-Jan-17 19:21 37.011652 -120.398191 106 34368ft 494kts
25-Jan-17 19:22 36.975256 -120.230198 107 35327ft 498kts
25-Jan-17 19:23 36.939439 -120.064349 106 35317ft 510kts
25-Jan-17 19:24 36.902627 -119.893345 98 35293ft 526kts
25-Jan-17 19:25 36.949113 -119.729946 59 35311ft 517kts
25-Jan-17 19:26 37.004661 -119.563626 64 35356ft 520kts
25-Jan-17 19:27 37.058336 -119.398000 64 35356ft 509kts
25-Jan-17 19:28 37.110568 -119.236024 64 35349ft 500kts
25-Jan-17 19:29 37.162087 -119.075380 64 35240ft 498kts
25-Jan-17 19:30 37.213548 -118.914000 64 35216ft 500kts
25-Jan-17 19:31 37.265061 -118.753262 65 35212ft 503kts
25-Jan-17 19:32 37.288329 -118.581349 83 35257ft 507kts
25-Jan-17 19:33 37.304088 -118.405164 81 35287ft 509kts
25-Jan-17 19:34 37.319947 -118.228414 81 35293ft 510kts
25-Jan-17 19:35 37.335489 -118.052282 81 35293ft 510kts
25-Jan-17 19:36 37.349474 -117.876212 91 35271ft 510kts
25-Jan-17 19:37 37.332931 -117.703751 96 35288ft 511kts
25-Jan-17 19:38 37.317101 -117.539771 96 35329ft 504kts
25-Jan-17 19:39 37.302173 -117.374599 95 35273ft 495kts
25-Jan-17 19:40 37.251276 -117.227273 135 35252ft 484kts
25-Jan-17 19:41 37.166448 -117.095083 130 35256ft 486kts
25-Jan-17 19:42 37.083871 -116.961191 131 35248ft 492kts
25-Jan-17 19:43 36.977491 -116.867822 161 34633ft 499kts
25-Jan-17 19:44 36.853877 -116.782507 158 30776ft 503kts
25-Jan-17 19:45 36.756069 -116.664735 112 25804ft 522kts
25-Jan-17 19:46 36.689814 -116.507452 121 24474ft 518kts
25-Jan-17 19:47 36.618126 -116.353932 121 24262ft 514kts
25-Jan-17 19:48 36.545193 -116.198364 121 24291ft 534kts
25-Jan-17 19:49 36.478678 -116.056137 121 24298ft 447kts
25-Jan-17 19:50 36.428017 -115.949635 122 23051ft 424kts
25-Jan-17 19:51 36.345692 -115.855414 142 20627ft 415kts
25-Jan-17 19:52 36.278059 -115.757416 122 18344ft 412kts
25-Jan-17 19:53 36.210387 -115.646325 129 16218ft 395kts
25-Jan-17 19:54 36.143367 -115.543819 129 14373ft 375kts
25-Jan-17 19:55 36.079077 -115.445970 128 12477ft 360kts
25-Jan-17 19:56 36.026606 -115.346795 90 11016ft 324kts
25-Jan-17 19:57 36.021435 -115.243042 91 10959ft 303kts
25-Jan-17 19:58 36.014838 -115.142973 91 10222ft 283kts
25-Jan-17 19:59 36.008485 -115.050024 91 9005ft 256kts
25-Jan-17 20:00 36.003241 -114.967519 90 7639ft 241kts
25-Jan-17 20:01 36.002510 -114.888458 62 6327ft 216kts
25-Jan-17 20:02 36.035735 -114.907154 296 5458ft 173kts
25-Jan-17 20:03 36.050892 -114.962414 289 4677ft 169kts
25-Jan-17 20:04 36.061988 -115.017604 286 4256ft 155kts
25-Jan-17 20:05 36.069919 -115.067764 281 3074ft 140kts
25-Jan-17 20:06 36.073485 -115.114720 272 2382ft 138kts
25-Jan-17 20:07 36.074391 -115.145221 292 2148ft 12kts
25-Jan-17 20:08 36.077649 -115.145168 92 2148ft 19kts
25-Jan-17 20:09 36.081141 -115.141430 41 2148ft 25kts
25-Jan-17 20:10 36.082187 -115.140026 45 2148ft 0kts
25-Jan-17 20:11 36.082187 -115.140026 45 2148ft 0kts

Navigation Log

Ident Type
1. KSFO Airport
2. BTY Navaid
3. MYCAL Fix
4. FUZZY Fix
5. TRAGR Fix
6. IPUMY Fix
7. NIPZO Fix
8. SUNST Fix
9. KIMME Fix
10. CHIPZ Fix
11. POKRR Fix
12. PRINO Fix
13. KLAS Airport